Terminal Aerodrome Forecast
Issued by NWS

Home | Current Version | Previous Version | Text Only | Print | Product List | Glossary On
Versions: 1 2 3 4 5 6 7 8 9 10 11 12 13 14 15 16 17
000
FTUS45 KABQ 210024 AAA
TAFAEG
TAF AMD
KAEG 210024Z 2100/2124 VRB03KT 4SM -RASN SCT015 BKN040
      TEMPO 2100/2104 1SM -SN BR BKN015
     FM210500 15015KT 2SM -SN BR SCT015 OVC030
     FM211900 25021G29KT P6SM OVC050
     FM212300 30035G44KT P6SM OVC050=

USA.gov is the U.S. government's official web portal to all federal, state and local government web resources and services.